createdAt,value
2022-12-24T00:03:18.952Z,22.73
2022-12-24T00:08:20.798Z,28.33
2022-12-24T00:13:22.573Z,32.03
2022-12-24T00:18:24.423Z,22.52
2022-12-24T00:23:26.170Z,23.38
2022-12-24T00:28:28.126Z,21.17
2022-12-24T00:33:29.827Z,21.50
2022-12-24T00:38:31.700Z,22.45
2022-12-24T00:43:33.495Z,20.27
2022-12-24T00:48:35.281Z,18.48
2022-12-24T00:53:37.131Z,19.67
2022-12-24T00:58:39.102Z,22.70
2022-12-24T01:03:40.919Z,20.05
2022-12-24T01:08:43.063Z,18.40
2022-12-24T01:13:44.806Z,18.15
2022-12-24T01:18:46.888Z,20.05
2022-12-24T01:23:49.306Z,18.17
2022-12-24T01:28:51.154Z,20.42
2022-12-24T01:33:53.050Z,26.52
2022-12-24T01:38:54.814Z,19.80
2022-12-24T01:43:56.539Z,19.58
2022-12-24T01:49:01.574Z,24.52
2022-12-24T01:54:28.857Z,15.63
2022-12-24T01:59:30.921Z,15.35
2022-12-24T02:04:34.721Z,17.27
2022-12-24T02:09:37.445Z,14.85
2022-12-24T02:14:39.238Z,17.25
2022-12-24T02:20:17.821Z,16.00
2022-12-24T02:25:25.593Z,15.73
2022-12-24T02:30:46.302Z,12.82
2022-12-24T02:36:03.242Z,14.70
2022-12-24T02:41:18.340Z,11.80
2022-12-24T02:46:27.992Z,12.50
2022-12-24T02:51:29.733Z,14.05
2022-12-24T02:56:43.524Z,13.00
2022-12-24T03:01:57.749Z,11.38
2022-12-24T03:07:13.581Z,11.55
2022-12-24T03:12:23.951Z,14.67
2022-12-24T03:17:26.784Z,14.60
2022-12-24T03:22:30.755Z,18.05
2022-12-24T03:27:34.459Z,18.20
2022-12-24T03:32:36.142Z,14.15
2022-12-24T03:37:38.367Z,16.00
2022-12-24T03:42:40.216Z,15.45
2022-12-24T03:47:42.001Z,13.98
2022-12-24T03:52:44.192Z,16.83
2022-12-24T03:57:46.036Z,13.27
2022-12-24T04:02:48.062Z,12.43
2022-12-24T04:07:49.885Z,13.52
2022-12-24T04:12:51.568Z,16.90
2022-12-24T04:17:53.279Z,13.05
2022-12-24T04:22:54.914Z,13.55
2022-12-24T04:27:56.591Z,11.30
2022-12-24T04:32:58.279Z,15.48
2022-12-24T04:38:00.399Z,12.32
2022-12-24T04:43:02.587Z,10.73
2022-12-24T04:48:04.766Z,9.10
2022-12-24T04:53:06.445Z,12.07
2022-12-24T04:58:08.141Z,13.02
2022-12-24T05:03:09.892Z,11.35
2022-12-24T05:08:11.859Z,12.80
2022-12-24T05:13:13.529Z,11.25
2022-12-24T05:18:15.222Z,10.02
2022-12-24T05:23:38.410Z,10.02
2022-12-24T05:28:40.150Z,11.55
2022-12-24T05:33:41.870Z,12.75
2022-12-24T05:38:44.482Z,11.68
2022-12-24T05:43:46.457Z,9.10
2022-12-24T05:48:49.049Z,10.10
2022-12-24T05:53:52.144Z,8.38
2022-12-24T05:58:54.958Z,6.88
2022-12-24T06:03:57.592Z,10.48
2022-12-24T06:08:59.398Z,8.77
2022-12-24T06:14:01.430Z,8.25
2022-12-24T06:19:03.134Z,10.88
2022-12-24T06:24:05.121Z,9.30
2022-12-24T06:29:07.056Z,9.18
2022-12-24T06:34:08.860Z,11.55
2022-12-24T06:39:10.567Z,9.43
2022-12-24T06:44:12.603Z,10.10
2022-12-24T06:49:14.269Z,9.32
2022-12-24T06:54:16.151Z,10.82
2022-12-24T06:59:17.917Z,10.25
2022-12-24T07:04:20.698Z,9.05
2022-12-24T07:09:22.676Z,12.27
2022-12-24T07:14:27.552Z,11.57
2022-12-24T07:19:29.347Z,13.77
2022-12-24T07:24:31.429Z,15.48
2022-12-24T07:29:33.257Z,11.80
2022-12-24T07:34:35.500Z,14.88
2022-12-24T07:39:37.283Z,14.05
2022-12-24T07:44:39.011Z,16.38
2022-12-24T07:49:40.812Z,13.88
2022-12-24T07:54:45.809Z,15.48
2022-12-24T07:59:47.532Z,14.80
2022-12-24T08:04:51.553Z,14.75
2022-12-24T08:09:53.360Z,12.82
2022-12-24T08:14:56.068Z,14.50
2022-12-24T08:19:57.782Z,10.93
2022-12-24T08:24:59.538Z,10.00
2022-12-24T08:30:01.402Z,11.68
2022-12-24T08:35:03.248Z,11.75
2022-12-24T08:40:05.574Z,10.98
2022-12-24T08:45:07.858Z,9.88
2022-12-24T08:50:10.422Z,11.05
2022-12-24T08:55:12.244Z,9.18
2022-12-24T09:00:15.125Z,11.73
2022-12-24T09:05:17.148Z,9.85
2022-12-24T09:10:19.138Z,11.50
2022-12-24T09:15:20.948Z,8.48
2022-12-24T09:20:23.198Z,12.63
2022-12-24T09:25:24.949Z,14.57
2022-12-24T09:30:26.682Z,9.93
2022-12-24T09:35:28.851Z,10.63
2022-12-24T09:40:38.157Z,9.35
2022-12-24T09:45:46.139Z,11.40
2022-12-24T09:51:11.151Z,16.50
2022-12-24T09:56:22.737Z,6.28
2022-12-24T10:01:25.052Z,7.43
2022-12-24T10:06:42.407Z,10.00
2022-12-24T10:12:02.771Z,6.10
2022-12-24T10:17:11.228Z,6.20
2022-12-24T10:22:42.063Z,6.35
2022-12-24T10:27:45.686Z,9.32
2022-12-24T10:32:49.902Z,11.63
2022-12-24T10:37:52.939Z,17.10
2022-12-24T10:42:54.782Z,22.48
2022-12-24T10:48:01.505Z,22.33
2022-12-24T10:58:47.994Z,15.55
2022-12-24T11:04:02.373Z,15.67
2022-12-24T11:09:21.743Z,13.80
2022-12-24T11:14:31.318Z,12.35
2022-12-24T11:19:41.653Z,11.13
2022-12-24T11:24:49.892Z,8.57
2022-12-24T11:29:52.412Z,8.82
2022-12-24T11:34:54.379Z,9.52
2022-12-24T11:40:00.004Z,10.32
2022-12-24T11:45:14.834Z,10.00
2022-12-24T11:50:27.088Z,10.40
2022-12-24T11:55:47.292Z,7.75
2022-12-24T12:00:51.605Z,9.25
2022-12-24T12:05:55.870Z,7.28
2022-12-24T12:11:00.138Z,9.68
2022-12-24T12:16:14.281Z,13.63
2022-12-24T12:21:22.515Z,7.63
2022-12-24T12:26:27.308Z,7.97
2022-12-24T12:31:34.298Z,8.25
2022-12-24T12:36:45.650Z,8.25
2022-12-24T12:42:17.484Z,9.20
2022-12-24T12:47:28.222Z,9.50
2022-12-24T12:53:24.736Z,8.40
2022-12-24T12:58:41.647Z,7.28
2022-12-24T13:04:01.321Z,7.10
2022-12-24T13:09:40.615Z,7.90
2022-12-24T13:14:57.570Z,8.98
2022-12-24T13:20:24.497Z,7.63
2022-12-24T13:25:40.277Z,8.85
2022-12-24T13:30:42.629Z,9.33
2022-12-24T13:36:02.631Z,5.75
2022-12-24T13:41:39.914Z,5.97
2022-12-24T13:47:05.339Z,5.78
2022-12-24T13:52:14.551Z,6.95
2022-12-24T13:57:30.864Z,6.35
2022-12-24T14:02:38.739Z,6.03
2022-12-24T14:07:47.715Z,6.20
2022-12-24T14:12:51.988Z,9.82
2022-12-24T14:17:54.054Z,10.95
2022-12-24T14:22:57.117Z,11.07
2022-12-24T14:28:01.068Z,12.98
2022-12-24T14:33:03.137Z,14.75
2022-12-24T14:38:05.787Z,15.38
2022-12-24T14:43:27.453Z,10.30
2022-12-24T14:48:34.634Z,16.40
2022-12-24T14:53:49.585Z,14.10
2022-12-24T14:58:52.617Z,15.80
2022-12-24T15:04:20.886Z,16.27
2022-12-24T15:09:29.606Z,17.98
2022-12-24T15:14:41.754Z,12.68
2022-12-24T15:19:47.801Z,17.52
2022-12-24T15:24:49.720Z,17.53
2022-12-24T15:29:55.849Z,15.38
2022-12-24T15:34:57.708Z,12.10
2022-12-24T15:40:10.126Z,11.30
2022-12-24T15:45:14.058Z,10.73
2022-12-24T15:50:35.807Z,11.85
2022-12-24T15:55:44.140Z,13.30
2022-12-24T16:01:04.726Z,13.48
2022-12-24T16:06:13.880Z,11.30
2022-12-24T16:11:20.355Z,17.75
2022-12-24T16:16:36.084Z,17.67
2022-12-24T16:21:42.393Z,17.33
2022-12-24T16:26:44.688Z,14.02
2022-12-24T16:31:51.634Z,15.13
2022-12-24T16:36:53.829Z,13.52
2022-12-24T16:42:16.020Z,10.70
2022-12-24T16:47:33.382Z,12.35
2022-12-24T16:52:36.660Z,11.60
2022-12-24T16:57:40.941Z,12.10
2022-12-24T17:02:43.006Z,13.43
2022-12-24T17:07:45.414Z,13.00
2022-12-24T17:12:47.077Z,13.68
2022-12-24T17:17:48.817Z,16.55
2022-12-24T17:22:51.022Z,14.55
2022-12-24T17:27:52.733Z,11.60
2022-12-24T17:32:54.401Z,18.75
2022-12-24T17:37:56.146Z,11.80
2022-12-24T17:42:58.030Z,17.95
2022-12-24T17:47:59.764Z,14.32
2022-12-24T17:53:01.457Z,14.35
2022-12-24T17:58:03.230Z,14.95
2022-12-24T18:03:05.101Z,17.45
2022-12-24T18:08:06.857Z,15.40
2022-12-24T18:13:12.663Z,17.70
2022-12-24T18:18:19.103Z,15.95
2022-12-24T18:23:20.790Z,15.85
2022-12-24T18:28:22.527Z,11.68
2022-12-24T18:33:24.257Z,11.35
2022-12-24T18:38:26.516Z,13.30
2022-12-24T18:43:28.574Z,16.27
2022-12-24T18:48:30.436Z,18.17
2022-12-24T18:53:33.135Z,17.45
2022-12-24T18:58:35.288Z,18.15
2022-12-24T19:03:37.221Z,19.65
2022-12-24T19:08:57.039Z,16.92
2022-12-24T19:14:01.808Z,12.90
2022-12-24T19:19:05.516Z,10.20
2022-12-24T19:24:10.569Z,9.38
2022-12-24T19:29:12.707Z,8.75
2022-12-24T19:34:14.634Z,13.77
2022-12-24T19:39:16.620Z,16.08
2022-12-24T19:44:18.599Z,22.08
2022-12-24T19:49:20.606Z,18.38
2022-12-24T19:54:22.574Z,19.17
2022-12-24T19:59:24.324Z,17.48
2022-12-24T20:04:26.248Z,19.15
2022-12-24T20:09:29.128Z,18.20
2022-12-24T20:14:31.108Z,15.60
2022-12-24T20:19:33.125Z,13.90
2022-12-24T20:24:35.120Z,14.57
2022-12-24T20:29:37.042Z,11.85
2022-12-24T20:34:39.078Z,16.20
2022-12-24T20:39:41.333Z,9.68
2022-12-24T20:44:43.426Z,17.42
2022-12-24T20:49:45.396Z,18.55
2022-12-24T20:54:47.459Z,15.52
2022-12-24T20:59:49.349Z,18.58
2022-12-24T21:04:54.147Z,17.38
2022-12-24T21:09:58.428Z,18.83
2022-12-24T21:15:00.345Z,16.98
2022-12-24T21:20:02.894Z,16.05
2022-12-24T21:25:05.741Z,18.73
2022-12-24T21:30:08.558Z,13.15
2022-12-24T21:35:12.533Z,14.57
2022-12-24T21:40:14.312Z,13.35
2022-12-24T21:45:16.194Z,14.85
2022-12-24T21:50:36.750Z,11.68
2022-12-24T21:55:38.544Z,14.90
2022-12-24T22:00:40.278Z,17.52
2022-12-24T22:05:42.062Z,17.30
2022-12-24T22:11:09.783Z,12.15
2022-12-24T22:16:12.757Z,18.80
2022-12-24T22:21:14.575Z,18.10
2022-12-24T22:26:18.198Z,15.57
2022-12-24T22:31:25.923Z,14.43
2022-12-24T22:36:27.888Z,15.82
2022-12-24T22:41:30.110Z,14.45
2022-12-24T22:46:32.078Z,14.23
2022-12-24T22:51:34.054Z,15.38
2022-12-24T22:56:40.962Z,15.57
2022-12-24T23:01:45.776Z,14.27
2022-12-24T23:06:48.086Z,15.40
2022-12-24T23:11:50.080Z,15.02
2022-12-24T23:16:53.803Z,14.57
2022-12-24T23:21:55.621Z,15.02
2022-12-24T23:26:59.107Z,14.15
2022-12-24T23:32:00.944Z,15.88
2022-12-24T23:37:02.788Z,15.27
2022-12-24T23:42:05.064Z,15.90
2022-12-24T23:47:07.224Z,16.08
2022-12-24T23:52:09.931Z,18.27
2022-12-24T23:57:11.686Z,34.35
